Terminal Aerodrome Forecast
Issued by NWS

Home | Current Version | Previous Version | Text Only | Print | Product List | Glossary On
Versions: 1 2 3 4 5 6 7 8 9 10 11 12 13 14 15 16 17
000
FTAK31 PAJN 281739
TAFAKT
TAF
PAKT 281739Z 2818/2918 33004KT P6SM OVC080
     FM282100 07006KT P6SM BKN060 OVC080
     FM290000 13007KT P6SM VCSH BKN040 OVC060
     FM290400 15010KT P6SM -SHRA BKN030 OVC050
     FM290900 15010KT 5SM -SHRA BR SCT015 BKN030 OVC050
     FM291500 15010G20KT 4SM -SHRA BR BKN015 OVC030 WS020/10035KT
      AMD LTD TO CLD VIS AND WIND 2906/2915=

USA.gov is the U.S. government's official web portal to all federal, state and local government web resources and services.